West Palm Beach, FL (33403)

12:48 PM EDT on July 25, 2017 (GMT -0400)
PBCFR ST. 68 - Lake Park | | Change Station

Elev 30 ft 26.80 °N, 80.07 °W | Updated 20 seconds ago

Mostly Cloudy
Mostly Cloudy
90.9 °F
Feels Like 108 °F
N
4.9
Wind Variable Wind from East
Gusts 7.0 mph

Today
High -- | Low -- °F
--% Chance of Precip.
Yesterday
High -- | Low -- °F
Precip. -- in
Pressure 30.15 in
Visibility 10.0 miles
Clouds Mostly Cloudy 3500 ft
Mostly Cloudy 18000 ft
Mostly Cloudy 25000 ft
Heat Index 108 °F
Dew Point 79 °F
Humidity 69%
Rainfall 0.00 in
Snow Depth Not available.
6:41 AM 8:11 PM
Waxing Crescent, 7% visible
METAR KPBI 251553Z 09008KT 10SM BKN035 BKN180 BKN250 32/24 A3015 RMK AO2 SLP208 T03220244
Pressure 30.15 in
Visibility 10.0 miles
Clouds Mostly Cloudy 3500 ft
Mostly Cloudy 18000 ft
Mostly Cloudy 25000 ft
Heat Index 108 °F
Dew Point 79 °F
Humidity 69%
Rainfall 0.00 in
Snow Depth Not available.
6:41 AM 8:11 PM
Waxing Crescent, 7% visible
METAR KPBI 251553Z 09008KT 10SM BKN035 BKN180 BKN250 32/24 A3015 RMK AO2 SLP208 T03220244

Get Severe Weather Alerts

Thanks for signing up!

Be on the lookout for a verification email in your inbox.

You'll start receiving the daily forecast at 6 AM.

×

10-Day Weather Forecast

Almanac

Astronomy

Jul. 25, 2017 Rise Set
Actual Time
Civil Twilight
Nautical Twilight
Astronomical Twilight
Moon
Length of Visible Light
Length of Day
Tomorrow will be .
, % of the Moon is Illuminated

Today's Extremes

State Highs State Lows

Community

WunderPhotos

Category 6

Welcome to Category 6. This is the collective home for Weather Underground's featured writeups by Dr. Jeff Masters (right), Bob Henson (left), Chris Burt, and other regular contributors.

Nearby

Air Quality

  Air Quality AQ Index Pollutant
Not available.

Snow Depth

Station Depth Elevation

Earthquake Activity

City Distance Mag. Time & Date
Minimum magnitude displayed is 2.5.

Coastal Water Temperatures

Place Temperature

Stations

Nearby Weather Stations

Station Location Temp. Windchill Dew Point Humidity Wind Precip. Elev Updated Type
                   

Watches & Warnings

There are currently no watches in effect.